Time;durP1;ratioP1;P1;durP2;ratioP2;P2;SDS_P1;SDS_P2;PMS_P1;PMS_P2;Temp;Humidity;BMP_temperature;BMP_pressure;BME280_temperature;BME280_humidity;BME280_pressure;Samples;Min_cycle;Max_cycle;Signal;HPM_P1;HPM_P2
2023/06/09 00:02:04;;;;;;;9.53;8.63;;;16.30;99.90;;;;;;5073477;28;20719;-69
2023/06/09 00:04:32;;;;;;;9.33;8.33;;;16.30;99.90;;;;;;5073696;28;20172;-69
2023/06/09 00:06:59;;;;;;;10.10;9.20;;;16.30;99.90;;;;;;5073159;28;20451;-69
2023/06/09 00:09:25;;;;;;;10.30;9.33;;;16.20;99.90;;;;;;5073221;28;20936;-69
2023/06/09 00:11:51;;;;;;;10.20;9.27;;;16.20;99.90;;;;;;5073212;28;20434;-68
2023/06/09 00:14:17;;;;;;;9.53;8.63;;;16.20;99.90;;;;;;5073504;28;20211;-68
2023/06/09 00:16:46;;;;;;;9.07;8.17;;;16.20;99.90;;;;;;5073515;28;20198;-68
2023/06/09 00:19:13;;;;;;;12.57;10.23;;;16.10;99.90;;;;;;5073537;28;20182;-68
2023/06/09 00:21:39;;;;;;;8.77;8.07;;;16.10;99.90;;;;;;5073556;28;20548;-66
2023/06/09 00:24:05;;;;;;;9.30;8.60;;;15.90;99.90;;;;;;5072808;28;20441;-67
2023/06/09 00:26:30;;;;;;;9.40;8.60;;;16.00;99.90;;;;;;5072995;28;20676;-67
2023/06/09 00:28:56;;;;;;;9.43;8.67;;;16.10;99.90;;;;;;5073106;28;20431;-67
2023/06/09 00:31:22;;;;;;;9.53;8.00;;;16.10;99.90;;;;;;5073024;28;20275;-68
2023/06/09 00:33:47;;;;;;;9.80;9.00;;;16.20;99.90;;;;;;5073735;28;20161;-68
2023/06/09 00:36:14;;;;;;;9.43;8.63;;;16.10;99.90;;;;;;5073218;28;20172;-68
2023/06/09 00:38:39;;;;;;;11.00;9.90;;;16.10;99.90;;;;;;5072719;28;20166;-68
2023/06/09 00:41:05;;;;;;;9.40;8.60;;;16.00;99.90;;;;;;5072966;28;20407;-68
2023/06/09 00:43:30;;;;;;;9.83;8.97;;;16.00;99.90;;;;;;5072822;28;20181;-68
2023/06/09 00:45:56;;;;;;;9.37;8.57;;;15.80;99.90;;;;;;5072217;28;20246;-68
2023/06/09 00:48:22;;;;;;;9.37;8.57;;;15.90;99.90;;;;;;5072967;28;20253;-68
2023/06/09 00:50:48;;;;;;;9.80;8.90;;;16.00;99.90;;;;;;5073176;28;20403;-68
2023/06/09 00:53:15;;;;;;;8.73;8.03;;;15.90;99.90;;;;;;5072831;28;20400;-68
2023/06/09 00:55:41;;;;;;;8.90;8.10;;;16.00;99.90;;;;;;5072962;28;20406;-67
2023/06/09 00:58:08;;;;;;;10.73;9.20;;;16.00;99.90;;;;;;5072883;28;20430;-66
2023/06/09 01:00:35;;;;;;;9.80;9.00;;;16.00;99.90;;;;;;5072622;28;20168;-67
2023/06/09 01:03:01;;;;;;;9.97;9.00;;;16.00;99.90;;;;;;5073163;28;20539;-68
2023/06/09 01:05:36;;;;;;;10.77;9.77;;;15.90;99.90;;;;;;5074952;28;20424;-69
2023/06/09 01:08:14;;;;;;;10.20;9.30;;;15.90;99.90;;;;;;5076662;28;20462;-68
2023/06/09 01:11:30;;;;;;;9.43;8.50;;;16.00;99.90;;;;;;5076751;28;20384;-68
2023/06/09 01:14:10;;;;;;;8.90;8.13;;;15.90;99.90;;;;;;5039668;28;20445;-68
2023/06/09 01:16:44;;;;;;;10.73;9.80;;;15.80;99.90;;;;;;5056350;28;20427;-68
2023/06/09 01:19:31;;;;;;;9.70;8.80;;;15.80;99.90;;;;;;5056866;28;20401;-68
2023/06/09 01:22:00;;;;;;;8.80;8.10;;;15.80;99.90;;;;;;5056694;28;20802;-68
2023/06/09 01:24:37;;;;;;;9.40;8.60;;;15.80;99.90;;;;;;5056445;28;20403;-70
2023/06/09 01:27:05;;;;;;;10.07;8.43;;;15.80;99.90;;;;;;5075347;28;20453;-69
2023/06/09 01:29:32;;;;;;;10.60;9.60;;;15.80;99.90;;;;;;5076373;28;20885;-69
2023/06/09 01:31:59;;;;;;;10.97;9.93;;;15.60;99.90;;;;;;5076578;28;20401;-68
2023/06/09 01:34:26;;;;;;;9.37;8.57;;;15.50;99.90;;;;;;5076651;28;20406;-68
2023/06/09 01:36:52;;;;;;;9.97;9.10;;;15.60;99.90;;;;;;5076335;28;20513;-68
2023/06/09 01:39:18;;;;;;;10.67;9.67;;;15.50;99.90;;;;;;5076115;28;20408;-68
2023/06/09 01:41:44;;;;;;;9.40;8.70;;;15.50;99.90;;;;;;5076150;28;20822;-69
2023/06/09 01:44:10;;;;;;;9.27;8.57;;;15.50;99.90;;;;;;5076350;28;20804;-69
2023/06/09 01:46:35;;;;;;;10.50;9.50;;;15.50;99.90;;;;;;5075918;28;20539;-68
2023/06/09 01:49:27;;;;;;;10.30;9.30;;;15.60;99.90;;;;;;5076000;28;20167;-69
2023/06/09 01:52:00;;;;;;;9.80;8.90;;;15.60;99.90;;;;;;5076502;28;20373;-68
2023/06/09 01:54:40;;;;;;;11.30;10.30;;;15.60;99.90;;;;;;5075683;28;20494;-69
2023/06/09 01:57:10;;;;;;;12.27;11.13;;;15.50;99.90;;;;;;5076104;28;20451;-69
2023/06/09 01:59:46;;;;;;;11.67;10.47;;;15.50;99.90;;;;;;5076114;28;20398;-69
2023/06/09 02:02:12;;;;;;;9.87;8.87;;;15.40;99.90;;;;;;5076459;28;20380;-68
2023/06/09 02:04:39;;;;;;;9.27;8.37;;;15.40;99.90;;;;;;5075630;28;20446;-69
2023/06/09 02:07:05;;;;;;;9.73;8.90;;;15.40;99.90;;;;;;5075554;28;20446;-69
2023/06/09 02:09:33;;;;;;;9.00;8.20;;;15.40;99.90;;;;;;5075664;28;20502;-69
2023/06/09 02:11:59;;;;;;;10.70;9.80;;;15.50;99.90;;;;;;5076059;28;20459;-69
2023/06/09 02:14:34;;;;;;;10.53;9.53;;;15.50;99.90;;;;;;5075749;28;20403;-69
2023/06/09 02:17:02;;;;;;;9.87;8.97;;;15.50;99.90;;;;;;5075316;28;20928;-69
2023/06/09 02:19:28;;;;;;;9.87;8.97;;;15.60;99.90;;;;;;5075927;28;20919;-68
2023/06/09 02:21:54;;;;;;;10.60;8.97;;;15.50;99.90;;;;;;5075801;28;20488;-68
2023/06/09 02:24:20;;;;;;;11.00;10.10;;;15.50;99.90;;;;;;5075398;28;21012;-69
2023/06/09 02:26:49;;;;;;;10.50;9.50;;;15.50;99.90;;;;;;5075297;28;20206;-69
2023/06/09 02:29:15;;;;;;;9.57;8.60;;;15.50;99.90;;;;;;5075710;28;20523;-68
2023/06/09 02:31:41;;;;;;;10.10;9.10;;;15.50;99.90;;;;;;5075264;28;20401;-68
2023/06/09 02:34:06;;;;;;;10.33;9.23;;;15.50;99.90;;;;;;5075740;28;20162;-69
2023/06/09 02:36:32;;;;;;;9.97;9.17;;;15.50;99.90;;;;;;5075306;28;20210;-69
2023/06/09 02:38:57;;;;;;;11.57;10.47;;;15.50;99.90;;;;;;5075133;28;20181;-68
2023/06/09 02:41:23;;;;;;;11.70;10.53;;;15.60;99.90;;;;;;5074921;28;20674;-69
2023/06/09 02:43:48;;;;;;;10.20;9.40;;;15.60;99.90;;;;;;5074941;28;20181;-68
2023/06/09 02:46:17;;;;;;;10.10;9.30;;;15.50;99.90;;;;;;5074866;28;20176;-69
2023/06/09 02:48:42;;;;;;;9.40;8.67;;;15.50;99.90;;;;;;5075199;28;20166;-68
2023/06/09 02:51:08;;;;;;;13.00;10.90;;;15.50;99.90;;;;;;5074806;28;20426;-69
2023/06/09 02:53:33;;;;;;;11.40;10.40;;;15.50;99.90;;;;;;5074163;28;20193;-69
2023/06/09 02:55:59;;;;;;;11.70;10.80;;;15.50;99.90;;;;;;5054980;28;20166;-69
2023/06/09 02:58:24;;;;;;;11.40;10.40;;;15.40;99.90;;;;;;5054974;28;20197;-69
2023/06/09 03:00:50;;;;;;;12.10;11.00;;;15.40;99.90;;;;;;5053295;28;20230;-69
2023/06/09 03:03:17;;;;;;;9.93;8.93;;;15.40;99.90;;;;;;5054912;28;20181;-69
2023/06/09 03:05:44;;;;;;;11.40;10.47;;;15.30;99.90;;;;;;5054627;28;20255;-68
2023/06/09 03:08:09;;;;;;;10.60;9.70;;;15.20;99.90;;;;;;5054377;28;20544;-68
2023/06/09 03:10:35;;;;;;;12.13;11.13;;;15.30;99.90;;;;;;5054765;28;20459;-68
2023/06/09 03:13:01;;;;;;;11.73;10.70;;;15.30;99.90;;;;;;5067426;28;20238;-69
2023/06/09 03:15:26;;;;;;;10.00;9.10;;;15.30;99.90;;;;;;5074192;28;20359;-69
2023/06/09 03:17:52;;;;;;;12.67;11.40;;;15.40;99.90;;;;;;5074234;28;20183;-69
2023/06/09 03:20:19;;;;;;;11.30;10.40;;;15.40;99.90;;;;;;5074272;28;20174;-69
2023/06/09 03:22:45;;;;;;;11.63;10.63;;;15.30;99.90;;;;;;5074177;28;20176;-69
2023/06/09 03:25:12;;;;;;;12.03;10.87;;;15.30;99.90;;;;;;5074444;28;20424;-69
2023/06/09 03:27:37;;;;;;;12.50;11.30;;;15.30;99.90;;;;;;5073003;28;20457;-68
2023/06/09 03:30:05;;;;;;;11.03;9.37;;;15.20;99.90;;;;;;5074162;28;20928;-68
2023/06/09 03:32:31;;;;;;;12.53;11.27;;;15.20;99.90;;;;;;5073900;28;20260;-69
2023/06/09 03:34:56;;;;;;;11.97;10.87;;;15.20;99.90;;;;;;5074518;28;20435;-69
2023/06/09 03:37:22;;;;;;;11.17;10.23;;;15.20;99.90;;;;;;5074316;28;20201;-69
2023/06/09 03:39:47;;;;;;;10.40;9.60;;;15.30;99.90;;;;;;5073881;28;20675;-69
2023/06/09 03:42:13;;;;;;;11.00;10.10;;;15.30;99.90;;;;;;5073716;28;20247;-69
2023/06/09 03:44:38;;;;;;;10.00;9.20;;;15.30;99.90;;;;;;5074293;28;20531;-69
2023/06/09 03:47:04;;;;;;;11.60;10.50;;;15.40;99.90;;;;;;5073380;28;20623;-68
2023/06/09 03:49:30;;;;;;;11.00;10.00;;;15.40;99.90;;;;;;5073986;28;20165;-68
2023/06/09 03:51:55;;;;;;;12.10;11.10;;;15.40;99.90;;;;;;5073918;28;20164;-68
2023/06/09 03:54:21;;;;;;;12.43;11.27;;;15.50;99.90;;;;;;5073114;28;20212;-68
2023/06/09 03:56:46;;;;;;;13.50;12.10;;;15.40;99.90;;;;;;5073445;28;20192;-68
2023/06/09 03:59:12;;;;;;;13.23;12.13;;;15.40;99.90;;;;;;5073540;28;20183;-68
2023/06/09 04:01:40;;;;;;;12.17;11.07;;;15.30;99.90;;;;;;5073451;28;20517;-69
2023/06/09 04:04:06;;;;;;;10.77;9.77;;;15.20;99.90;;;;;;5073723;28;20168;-69
2023/06/09 04:06:31;;;;;;;13.30;12.00;;;15.20;99.90;;;;;;5073670;28;20818;-68
2023/06/09 04:08:57;;;;;;;12.10;11.10;;;15.20;99.90;;;;;;5073821;28;20172;-69
2023/06/09 04:11:23;;;;;;;11.90;10.87;;;15.30;99.90;;;;;;5075077;28;20243;-69
2023/06/09 04:13:48;;;;;;;13.17;11.87;;;15.40;99.90;;;;;;5075059;28;20248;-69
2023/06/09 04:16:15;;;;;;;11.97;10.77;;;15.40;99.90;;;;;;5074583;28;20233;-69
2023/06/09 04:18:41;;;;;;;13.33;12.20;;;15.40;99.90;;;;;;5074767;28;20174;-68
2023/06/09 04:21:07;;;;;;;13.63;11.00;;;15.40;99.90;;;;;;5074736;28;20403;-69
2023/06/09 04:23:32;;;;;;;12.70;11.63;;;15.50;99.90;;;;;;5074168;28;20651;-69
2023/06/09 04:25:59;;;;;;;12.03;10.93;;;15.50;99.90;;;;;;5074128;28;20160;-69
2023/06/09 04:28:25;;;;;;;11.17;10.20;;;15.40;99.90;;;;;;5072979;28;20218;-69
2023/06/09 04:30:51;;;;;;;11.30;10.00;;;15.50;99.90;;;;;;5072938;28;20404;-69
2023/06/09 04:33:16;;;;;;;11.30;10.20;;;15.60;99.90;;;;;;5073147;28;20662;-69
2023/06/09 04:35:43;;;;;;;11.03;10.13;;;15.60;99.90;;;;;;5073141;28;20255;-68
2023/06/09 04:38:09;;;;;;;13.63;12.33;;;15.70;99.90;;;;;;5072601;28;20195;-68
2023/06/09 04:40:37;;;;;;;10.60;9.60;;;15.70;99.90;;;;;;5073376;28;20410;-69
2023/06/09 04:43:03;;;;;;;13.03;12.03;;;15.80;99.90;;;;;;5072900;28;20451;-69
2023/06/09 04:45:28;;;;;;;11.90;10.90;;;15.80;99.90;;;;;;5072732;28;20436;-69
2023/06/09 04:47:57;;;;;;;12.43;11.13;;;15.90;99.90;;;;;;5075153;28;20195;-69
2023/06/09 04:50:23;;;;;;;11.10;10.10;;;16.00;99.90;;;;;;5072498;28;20210;-69
2023/06/09 04:52:49;;;;;;;12.77;11.50;;;16.00;99.90;;;;;;5072595;28;20411;-69
2023/06/09 04:55:14;;;;;;;12.90;11.80;;;16.00;99.90;;;;;;5073058;28;20421;-69
2023/06/09 04:57:40;;;;;;;11.87;10.87;;;16.00;99.90;;;;;;5073044;28;20200;-69
2023/06/09 05:00:12;;;;;;;14.60;13.30;;;16.10;99.90;;;;;;5072844;28;20629;-69
2023/06/09 05:02:39;;;;;;;11.13;10.13;;;16.10;99.90;;;;;;5072704;28;20856;-68
2023/06/09 05:05:05;;;;;;;11.90;10.90;;;16.20;99.90;;;;;;5072770;28;20414;-69
2023/06/09 05:07:31;;;;;;;11.73;10.53;;;16.30;99.90;;;;;;5072796;28;20463;-68
2023/06/09 05:09:56;;;;;;;12.40;11.30;;;16.40;99.90;;;;;;5072347;28;20955;-69
2023/06/09 05:12:22;;;;;;;12.07;11.07;;;16.50;99.90;;;;;;5072620;28;20201;-69
2023/06/09 05:14:47;;;;;;;12.20;11.20;;;16.60;99.90;;;;;;5072538;28;20643;-69
2023/06/09 05:17:13;;;;;;;11.13;10.23;;;16.70;99.90;;;;;;5072301;28;20536;-69
2023/06/09 05:19:38;;;;;;;12.50;11.40;;;16.80;99.90;;;;;;5072933;28;20624;-68
2023/06/09 05:22:04;;;;;;;11.60;10.70;;;16.90;99.90;;;;;;5072501;28;20592;-69
2023/06/09 05:24:29;;;;;;;13.50;12.30;;;17.00;99.90;;;;;;5072358;28;20176;-69
2023/06/09 05:26:55;;;;;;;12.80;11.70;;;17.10;99.90;;;;;;5073269;28;20228;-68
2023/06/09 05:29:21;;;;;;;12.23;11.23;;;17.30;99.90;;;;;;5072775;28;20215;-69
2023/06/09 05:31:46;;;;;;;11.57;10.67;;;17.40;99.90;;;;;;5072479;28;20285;-69
2023/06/09 05:34:12;;;;;;;12.97;11.20;;;17.50;99.90;;;;;;5072565;28;20170;-69
2023/06/09 05:36:37;;;;;;;12.70;11.60;;;17.60;99.90;;;;;;5072609;28;20596;-69
2023/06/09 05:39:03;;;;;;;12.73;11.63;;;17.70;99.90;;;;;;5071886;28;20170;-69
2023/06/09 05:41:28;;;;;;;12.73;11.70;;;17.80;99.90;;;;;;5072600;28;20224;-69
2023/06/09 05:43:57;;;;;;;13.70;12.47;;;17.90;99.90;;;;;;5072594;28;20215;-69
2023/06/09 05:46:23;;;;;;;11.90;10.90;;;17.90;99.90;;;;;;5071896;28;20724;-69
2023/06/09 05:48:50;;;;;;;13.30;12.20;;;18.00;99.90;;;;;;5072277;28;20513;-69
2023/06/09 05:51:17;;;;;;;13.03;11.93;;;18.00;99.90;;;;;;5073690;28;20583;-69
2023/06/09 05:53:42;;;;;;;14.40;13.00;;;18.00;99.90;;;;;;5075955;28;20405;-68
2023/06/09 05:56:09;;;;;;;13.70;12.30;;;18.00;99.90;;;;;;5075744;28;20407;-68
2023/06/09 05:58:35;;;;;;;13.87;12.67;;;18.10;99.90;;;;;;5075692;28;20178;-69
2023/06/09 06:01:03;;;;;;;14.93;13.37;;;18.30;99.90;;;;;;5075520;28;20542;-69
2023/06/09 06:03:29;;;;;;;14.73;13.50;;;18.60;99.90;;;;;;5075773;28;20693;-68
2023/06/09 06:05:55;;;;;;;14.37;12.93;;;18.60;99.90;;;;;;5075656;28;20400;-69
2023/06/09 06:08:20;;;;;;;15.40;13.83;;;18.90;99.90;;;;;;5075273;28;20489;-69
2023/06/09 06:10:46;;;;;;;16.70;15.07;;;18.80;99.90;;;;;;5075860;28;20162;-68
2023/06/09 06:13:13;;;;;;;14.07;12.87;;;18.90;99.90;;;;;;5075664;28;20178;-69
2023/06/09 06:15:38;;;;;;;15.83;14.37;;;19.00;99.90;;;;;;5075367;28;20162;-69
2023/06/09 06:18:04;;;;;;;15.13;13.73;;;19.10;99.90;;;;;;5075395;28;20427;-69
2023/06/09 06:20:30;;;;;;;15.57;14.07;;;19.10;99.90;;;;;;5075416;28;20514;-69
2023/06/09 06:22:55;;;;;;;16.63;15.13;;;19.10;99.90;;;;;;5075577;28;20192;-69
2023/06/09 06:25:21;;;;;;;17.40;15.67;;;19.10;99.90;;;;;;5075134;28;20220;-68
2023/06/09 06:27:48;;;;;;;16.17;14.47;;;19.10;99.90;;;;;;5075440;28;20313;-68
2023/06/09 06:30:13;;;;;;;16.27;14.57;;;19.00;99.90;;;;;;5075510;28;20452;-69
2023/06/09 06:32:48;;;;;;;15.87;14.10;;;18.80;99.90;;;;;;5075036;28;20166;-69
2023/06/09 06:35:22;;;;;;;17.37;15.17;;;19.00;99.90;;;;;;5075150;28;20946;-69
2023/06/09 06:37:47;;;;;;;18.17;16.57;;;19.20;99.90;;;;;;5075612;28;20565;-69
2023/06/09 06:40:13;;;;;;;15.83;14.43;;;19.30;99.90;;;;;;5075172;28;20887;-69
2023/06/09 06:42:40;;;;;;;14.70;13.50;;;19.50;99.90;;;;;;5075927;28;20182;-69
2023/06/09 06:45:06;;;;;;;15.50;14.00;;;19.50;99.90;;;;;;5075237;28;20786;-69
2023/06/09 06:47:31;;;;;;;15.60;14.20;;;19.60;99.90;;;;;;5075110;28;20528;-69
2023/06/09 06:49:57;;;;;;;15.50;14.00;;;20.00;99.90;;;;;;5075033;28;20542;-69
2023/06/09 06:52:22;;;;;;;15.67;14.10;;;19.90;99.90;;;;;;5074776;28;20212;-69
2023/06/09 06:54:48;;;;;;;15.30;13.90;;;19.70;99.90;;;;;;5074421;28;20567;-68
2023/06/09 06:57:14;;;;;;;15.27;13.80;;;19.80;99.90;;;;;;5075036;28;20542;-68
2023/06/09 06:59:40;;;;;;;14.80;13.37;;;19.70;99.90;;;;;;5074395;28;20628;-67
2023/06/09 07:02:06;;;;;;;14.70;13.40;;;19.70;99.90;;;;;;5073576;28;20430;-68
2023/06/09 07:04:31;;;;;;;15.00;13.50;;;19.60;99.90;;;;;;5075170;28;20486;-67
2023/06/09 07:06:57;;;;;;;15.90;14.37;;;19.60;99.90;;;;;;5075929;28;20205;-68
2023/06/09 07:09:23;;;;;;;13.80;12.00;;;19.70;99.90;;;;;;5074025;28;20176;-68
2023/06/09 07:11:49;;;;;;;11.60;10.47;;;19.90;99.90;;;;;;5074723;28;20624;-68
2023/06/09 07:14:14;;;;;;;13.00;11.80;;;20.00;99.90;;;;;;5074420;28;20462;-68
2023/06/09 07:16:40;;;;;;;10.00;9.07;;;20.10;99.90;;;;;;5074316;28;20190;-68
2023/06/09 07:19:08;;;;;;;11.20;10.20;;;20.10;99.90;;;;;;5074366;28;20170;-68
2023/06/09 07:21:33;;;;;;;8.80;8.10;;;20.30;99.90;;;;;;5074322;28;20158;-67
2023/06/09 07:23:59;;;;;;;9.83;7.60;;;20.50;99.90;;;;;;5073792;28;20728;-67
2023/06/09 07:26:25;;;;;;;8.40;7.60;;;20.50;99.90;;;;;;5073841;28;20201;-69
2023/06/09 07:28:50;;;;;;;7.80;6.70;;;20.70;99.90;;;;;;5074874;28;20159;-69
2023/06/09 07:31:16;;;;;;;7.10;6.40;;;21.20;99.90;;;;;;5074097;28;20578;-69
2023/06/09 07:33:41;;;;;;;7.90;7.30;;;21.30;99.90;;;;;;5073675;28;20170;-67
2023/06/09 07:36:11;;;;;;;9.50;8.70;;;21.50;99.90;;;;;;5074530;28;20166;-68
2023/06/09 07:38:44;;;;;;;8.63;7.93;;;21.40;99.90;;;;;;5073434;28;20180;-68
2023/06/09 07:41:09;;;;;;;11.37;10.43;;;21.50;99.90;;;;;;5055955;28;20454;-68
2023/06/09 07:43:35;;;;;;;11.37;10.47;;;21.30;99.90;;;;;;5055796;28;20486;-68
2023/06/09 07:46:01;;;;;;;8.93;8.13;;;21.20;99.90;;;;;;5074082;28;20177;-68
2023/06/09 07:48:27;;;;;;;7.57;6.87;;;21.20;99.90;;;;;;5073580;28;20224;-68
2023/06/09 07:50:52;;;;;;;11.53;9.37;;;21.40;99.90;;;;;;5073919;28;20223;-68
2023/06/09 07:53:20;;;;;;;10.70;8.60;;;21.70;99.90;;;;;;5073444;28;20396;-68
2023/06/09 07:55:45;;;;;;;8.13;7.43;;;21.40;99.90;;;;;;5073573;28;20159;-68
2023/06/09 07:58:11;;;;;;;9.70;8.77;;;21.40;99.90;;;;;;5073189;28;21002;-68
2023/06/09 08:00:36;;;;;;;6.97;6.47;;;21.30;99.90;;;;;;5073870;28;20174;-68
2023/06/09 08:03:03;;;;;;;7.00;6.30;;;21.50;99.90;;;;;;5073770;28;20166;-68
2023/06/09 08:05:30;;;;;;;7.47;6.77;;;21.60;99.90;;;;;;5073622;28;20181;-68
2023/06/09 08:07:57;;;;;;;7.83;7.03;;;21.90;99.90;;;;;;5073134;28;20444;-68
2023/06/09 08:10:23;;;;;;;7.10;6.50;;;22.00;99.90;;;;;;5072984;28;20405;-68
2023/06/09 08:12:52;;;;;;;6.77;6.07;;;22.20;99.90;;;;;;5073128;28;20427;-68
2023/06/09 08:15:18;;;;;;;7.70;7.03;;;22.40;99.90;;;;;;5072753;28;20162;-68
2023/06/09 08:17:43;;;;;;;7.00;6.50;;;22.50;99.90;;;;;;5073099;28;20561;-67
2023/06/09 08:20:09;;;;;;;7.10;6.40;;;22.40;99.90;;;;;;5072991;28;20176;-67
2023/06/09 08:22:35;;;;;;;10.80;6.57;;;22.20;99.90;;;;;;5072961;28;20636;-67
2023/06/09 08:25:01;;;;;;;7.40;6.70;;;22.40;99.90;;;;;;5073060;28;20458;-68
2023/06/09 08:27:27;;;;;;;7.20;6.60;;;22.50;99.90;;;;;;5072830;28;20751;-68
2023/06/09 08:29:53;;;;;;;7.50;6.77;;;22.20;99.90;;;;;;5073378;28;20433;-68
2023/06/09 08:32:18;;;;;;;8.30;7.60;;;22.30;99.90;;;;;;5072952;28;20170;-69
2023/06/09 08:34:44;;;;;;;8.80;7.90;;;22.40;99.90;;;;;;5073054;28;20224;-68
2023/06/09 08:37:09;;;;;;;7.00;6.10;;;22.40;99.90;;;;;;5073075;28;20189;-68
2023/06/09 08:39:35;;;;;;;7.47;6.80;;;22.50;99.90;;;;;;5072515;28;20169;-68
2023/06/09 08:42:06;;;;;;;8.07;6.47;;;22.90;99.90;;;;;;5073169;28;20269;-68
2023/06/09 08:44:39;;;;;;;10.20;6.93;;;23.20;99.90;;;;;;5073022;28;20166;-68
2023/06/09 08:47:06;;;;;;;6.63;6.13;;;23.50;99.90;;;;;;5072721;28;20458;-68
2023/06/09 08:49:34;;;;;;;7.20;6.00;;;23.20;99.90;;;;;;5073186;28;20404;-67
2023/06/09 08:52:02;;;;;;;6.47;5.80;;;23.10;99.90;;;;;;5072934;28;20407;-68
2023/06/09 08:54:28;;;;;;;5.60;5.10;;;23.10;99.90;;;;;;5072753;28;20768;-67
2023/06/09 08:56:54;;;;;;;8.40;6.40;;;23.30;99.90;;;;;;5072664;28;20420;-68
2023/06/09 08:59:21;;;;;;;5.97;5.47;;;23.40;99.90;;;;;;5073231;28;20400;-68
2023/06/09 09:01:52;;;;;;;6.27;5.77;;;23.60;99.90;;;;;;5073696;28;20632;-68
2023/06/09 09:04:18;;;;;;;5.17;4.67;;;23.70;99.90;;;;;;5072354;28;20401;-68
2023/06/09 09:06:43;;;;;;;5.70;5.20;;;23.80;99.90;;;;;;5072532;28;20476;-68
2023/06/09 09:09:09;;;;;;;6.73;5.30;;;23.90;99.90;;;;;;5072694;28;20462;-68
2023/06/09 09:11:35;;;;;;;5.83;5.33;;;23.80;99.90;;;;;;5072913;28;20166;-67
2023/06/09 09:14:09;;;;;;;5.23;4.63;;;23.90;99.90;;;;;;5072919;28;20170;-68
2023/06/09 09:16:35;;;;;;;5.23;4.83;;;24.00;99.90;;;;;;5073028;28;20416;-68
2023/06/09 09:19:01;;;;;;;5.63;5.20;;;24.20;99.90;;;;;;5073269;28;20400;-68
2023/06/09 09:21:27;;;;;;;6.00;5.50;;;24.30;99.90;;;;;;5073169;28;20404;-68
2023/06/09 09:24:01;;;;;;;5.50;4.10;;;24.30;99.90;;;;;;5072358;28;20961;-67
2023/06/09 09:26:28;;;;;;;5.20;4.80;;;24.40;99.90;;;;;;5075033;28;20660;-68
2023/06/09 09:29:06;;;;;;;5.53;4.50;;;24.40;99.90;;;;;;5077466;28;20377;-68
2023/06/09 09:31:38;;;;;;;4.20;3.90;;;24.40;99.90;;;;;;5076206;28;20475;-68
2023/06/09 09:34:09;;;;;;;4.90;4.53;;;24.50;99.90;;;;;;5076772;28;20460;-68
2023/06/09 09:36:44;;;;;;;5.93;4.47;;;24.70;99.90;;;;;;5076467;28;20455;-67
2023/06/09 09:39:09;;;;;;;4.30;3.90;;;24.80;99.90;;;;;;5076034;28;20794;-68
2023/06/09 09:41:35;;;;;;;4.60;4.30;;;24.80;99.70;;;;;;5076091;28;20404;-68
2023/06/09 09:44:00;;;;;;;3.90;3.60;;;24.90;99.60;;;;;;5076404;28;20165;-68
2023/06/09 09:46:26;;;;;;;4.63;4.23;;;25.10;99.60;;;;;;5075552;28;20549;-68
2023/06/09 09:48:54;;;;;;;5.30;4.90;;;25.20;99.90;;;;;;5076283;28;20181;-68
2023/06/09 09:51:20;;;;;;;4.67;4.27;;;25.40;99.50;;;;;;5076216;28;20170;-68
2023/06/09 09:53:46;;;;;;;4.50;4.13;;;25.40;99.10;;;;;;5076125;28;20411;-68
2023/06/09 09:56:17;;;;;;;4.27;3.53;;;25.50;99.40;;;;;;5075845;28;20400;-68
2023/06/09 09:58:45;;;;;;;4.50;4.10;;;25.40;99.00;;;;;;5075810;28;20870;-68
2023/06/09 10:01:11;;;;;;;4.10;3.80;;;25.50;98.70;;;;;;5075659;28;20538;-68
2023/06/09 10:03:42;;;;;;;3.87;3.57;;;25.70;97.50;;;;;;5075510;28;20415;-68
2023/06/09 10:06:10;;;;;;;4.90;3.80;;;25.50;98.30;;;;;;5076021;28;20436;-68
2023/06/09 10:08:40;;;;;;;4.83;3.90;;;25.60;98.00;;;;;;5075649;28;20531;-68
2023/06/09 10:11:07;;;;;;;5.37;3.70;;;25.60;97.50;;;;;;5075932;28;20531;-68
2023/06/09 10:13:33;;;;;;;4.87;4.07;;;25.60;98.80;;;;;;5075594;28;20412;-68
2023/06/09 10:15:59;;;;;;;3.67;3.37;;;26.00;97.70;;;;;;5075323;28;20432;-68
2023/06/09 10:18:26;;;;;;;4.30;3.10;;;26.10;95.30;;;;;;5075378;28;20811;-68
2023/06/09 10:20:54;;;;;;;3.50;3.20;;;26.00;95.60;;;;;;5075380;28;20408;-68
2023/06/09 10:23:21;;;;;;;3.30;3.00;;;26.10;95.90;;;;;;5075441;28;20780;-68
2023/06/09 10:25:48;;;;;;;5.67;3.20;;;26.00;94.90;;;;;;5075089;28;20404;-68
2023/06/09 10:28:17;;;;;;;3.33;3.03;;;26.30;94.00;;;;;;5075079;28;21040;-68
2023/06/09 10:30:47;;;;;;;3.10;2.90;;;26.20;94.70;;;;;;5075357;28;20404;-68
2023/06/09 10:33:16;;;;;;;3.20;2.90;;;26.40;93.20;;;;;;5075319;28;20396;-68
2023/06/09 10:35:44;;;;;;;4.40;3.70;;;26.40;92.40;;;;;;5075444;28;20419;-68
2023/06/09 10:38:30;;;;;;;4.33;3.77;;;26.40;92.50;;;;;;5076040;28;20783;-68
2023/06/09 10:41:05;;;;;;;3.33;3.13;;;26.60;92.70;;;;;;5075348;28;20408;-68
2023/06/09 10:43:40;;;;;;;3.40;3.10;;;26.50;93.10;;;;;;5075021;28;20494;-68
2023/06/09 10:46:07;;;;;;;7.57;3.60;;;26.80;91.90;;;;;;5074642;28;20753;-68
2023/06/09 10:48:48;;;;;;;3.87;3.40;;;26.90;91.60;;;;;;5075420;28;20487;-68
2023/06/09 10:51:28;;;;;;;3.33;3.03;;;26.60;92.20;;;;;;5075172;28;20396;-68
2023/06/09 10:54:12;;;;;;;3.27;3.07;;;26.70;92.60;;;;;;5074870;28;20810;-69
2023/06/09 10:56:41;;;;;;;3.40;3.07;;;26.60;93.00;;;;;;5075284;28;20412;-68
2023/06/09 10:59:25;;;;;;;4.20;3.90;;;26.80;91.80;;;;;;5075007;28;20415;-69
2023/06/09 11:02:02;;;;;;;3.30;3.10;;;27.20;91.20;;;;;;5075379;28;20405;-69
2023/06/09 11:07:18;;;;;;;2.80;2.60;;;26.80;91.20;;;;;;5074798;28;20483;-69
2023/06/09 11:09:46;;;;;;;3.60;3.20;;;26.90;90.50;;;;;;5074452;28;20419;-68
2023/06/09 11:12:24;;;;;;;3.60;3.23;;;27.10;90.00;;;;;;5074052;28;20404;-69
2023/06/09 11:14:58;;;;;;;3.27;3.07;;;27.10;90.20;;;;;;5054516;28;20407;-68
2023/06/09 11:17:25;;;;;;;2.73;2.53;;;27.40;91.60;;;;;;5054972;28;20456;-69
2023/06/09 11:20:09;;;;;;;3.00;2.80;;;27.20;87.10;;;;;;5054728;28;20405;-69
2023/06/09 11:23:01;;;;;;;3.37;3.07;;;27.10;88.90;;;;;;5054914;28;20394;-69
2023/06/09 11:25:27;;;;;;;3.13;2.80;;;27.40;90.90;;;;;;5071315;28;20411;-69
2023/06/09 11:27:59;;;;;;;3.03;2.80;;;27.50;88.00;;;;;;5117182;22;20829;-68
2023/06/09 11:30:27;;;;;;;3.50;3.27;;;27.80;87.30;;;;;;5114346;28;20437;-68
2023/06/09 11:33:03;;;;;;;5.50;3.90;;;29.10;84.00;;;;;;5114528;28;20391;-67
2023/06/09 11:35:28;;;;;;;3.50;3.23;;;29.90;79.10;;;;;;5114733;28;20386;-67
2023/06/09 11:38:05;;;;;;;3.50;2.80;;;30.30;78.00;;;;;;5114455;28;20410;-67
2023/06/09 11:40:33;;;;;;;4.10;3.80;;;31.70;72.90;;;;;;5114378;28;20179;-68
2023/06/09 11:43:00;;;;;;;3.30;3.00;;;32.60;70.80;;;;;;5114393;28;20397;-68
2023/06/09 11:45:27;;;;;;;3.10;2.73;;;32.50;66.90;;;;;;5113985;28;20405;-68
2023/06/09 11:48:02;;;;;;;2.93;2.73;;;32.10;66.90;;;;;;5113578;28;20438;-67
2023/06/09 11:50:42;;;;;;;3.03;2.83;;;32.50;67.20;;;;;;5114042;28;20941;-69
2023/06/09 11:53:16;;;;;;;3.90;3.60;;;33.30;67.00;;;;;;5114907;28;20423;-67
2023/06/09 11:55:42;;;;;;;3.30;3.10;;;34.90;63.90;;;;;;5113811;28;20539;-68
2023/06/09 11:58:09;;;;;;;3.77;3.33;;;35.60;60.20;;;;;;5114106;28;20422;-68
2023/06/09 12:00:43;;;;;;;3.20;3.00;;;35.00;58.20;;;;;;5095515;28;20547;-68
2023/06/09 12:03:10;;;;;;;2.53;2.40;;;35.10;56.80;;;;;;5113800;28;20394;-68
2023/06/09 12:05:36;;;;;;;2.60;2.40;;;35.40;56.30;;;;;;5114171;28;20493;-68
2023/06/09 12:08:02;;;;;;;3.07;2.87;;;35.20;56.90;;;;;;5095561;28;20454;-67
2023/06/09 12:10:28;;;;;;;3.17;2.90;;;34.20;57.20;;;;;;5114086;28;20410;-69
2023/06/09 12:12:56;;;;;;;3.40;3.10;;;33.50;59.90;;;;;;5113646;28;20435;-68
2023/06/09 12:15:23;;;;;;;3.93;3.00;;;34.30;56.40;;;;;;5113504;28;20399;-69
2023/06/09 12:17:51;;;;;;;3.30;3.00;;;34.00;56.10;;;;;;5113499;28;20475;-68
2023/06/09 12:20:30;;;;;;;2.70;2.23;;;33.30;55.70;;;;;;5113797;28;20489;-68
2023/06/09 12:22:56;;;;;;;3.30;3.00;;;34.20;54.50;;;;;;5114252;28;20439;-68
2023/06/09 12:25:26;;;;;;;2.90;2.70;;;34.50;53.60;;;;;;5113124;28;20467;-69
2023/06/09 12:27:53;;;;;;;2.70;2.50;;;34.90;53.60;;;;;;5113298;28;20816;-68
2023/06/09 12:30:41;;;;;;;3.07;2.87;;;34.40;55.80;;;;;;5113361;28;20405;-68
2023/06/09 12:33:12;;;;;;;3.27;2.73;;;33.10;57.50;;;;;;5113694;28;20392;-68
2023/06/09 12:35:39;;;;;;;4.80;2.77;;;33.50;57.80;;;;;;5113477;28;20403;-67
2023/06/09 12:38:22;;;;;;;2.60;2.40;;;33.40;58.40;;;;;;5113286;28;20434;-69
2023/06/09 12:40:56;;;;;;;3.67;2.77;;;35.00;55.20;;;;;;5113288;28;20391;-68
2023/06/09 12:43:24;;;;;;;2.87;2.67;;;36.00;53.20;;;;;;5113370;28;20402;-68
2023/06/09 12:45:53;;;;;;;2.97;2.77;;;35.70;52.20;;;;;;5113177;28;20430;-67